sensor_id;sensor_type;location;lat;lon;timestamp;temperature;humidity
8914;DHT22;4492;48.736;9.092;2023-05-29T00:00:33;11.00;99.90
8914;DHT22;4492;48.736;9.092;2023-05-29T00:02:58;11.00;99.90
8914;DHT22;4492;48.736;9.092;2023-05-29T00:05:24;11.00;99.90
8914;DHT22;4492;48.736;9.092;2023-05-29T00:07:49;11.00;99.90
8914;DHT22;4492;48.736;9.092;2023-05-29T00:10:16;11.00;99.90
8914;DHT22;4492;48.736;9.092;2023-05-29T00:12:42;10.90;99.90
8914;DHT22;4492;48.736;9.092;2023-05-29T00:15:08;10.90;99.90
8914;DHT22;4492;48.736;9.092;2023-05-29T00:17:35;10.80;99.90
8914;DHT22;4492;48.736;9.092;2023-05-29T00:20:02;10.70;99.90
8914;DHT22;4492;48.736;9.092;2023-05-29T00:22:37;10.70;99.90
8914;DHT22;4492;48.736;9.092;2023-05-29T00:25:04;10.70;99.90
8914;DHT22;4492;48.736;9.092;2023-05-29T00:27:31;10.70;99.90
8914;DHT22;4492;48.736;9.092;2023-05-29T00:29:58;10.70;99.90
8914;DHT22;4492;48.736;9.092;2023-05-29T00:32:23;10.60;99.90
8914;DHT22;4492;48.736;9.092;2023-05-29T00:34:49;10.60;99.90
8914;DHT22;4492;48.736;9.092;2023-05-29T00:37:15;10.60;99.90
8914;DHT22;4492;48.736;9.092;2023-05-29T00:39:41;10.50;99.90
8914;DHT22;4492;48.736;9.092;2023-05-29T00:42:06;10.50;99.90
8914;DHT22;4492;48.736;9.092;2023-05-29T00:44:32;10.50;99.90
8914;DHT22;4492;48.736;9.092;2023-05-29T00:46:58;10.50;99.90
8914;DHT22;4492;48.736;9.092;2023-05-29T00:49:24;10.60;99.90
8914;DHT22;4492;48.736;9.092;2023-05-29T00:51:51;10.60;99.90
8914;DHT22;4492;48.736;9.092;2023-05-29T00:54:21;10.50;99.90
8914;DHT22;4492;48.736;9.092;2023-05-29T00:56:48;10.50;99.90
8914;DHT22;4492;48.736;9.092;2023-05-29T00:59:14;10.50;99.90
8914;DHT22;4492;48.736;9.092;2023-05-29T01:01:41;10.40;99.90
8914;DHT22;4492;48.736;9.092;2023-05-29T01:04:07;10.40;99.90
8914;DHT22;4492;48.736;9.092;2023-05-29T01:06:35;10.40;99.90
8914;DHT22;4492;48.736;9.092;2023-05-29T01:09:01;10.30;99.90
8914;DHT22;4492;48.736;9.092;2023-05-29T01:11:41;10.30;99.90
8914;DHT22;4492;48.736;9.092;2023-05-29T01:14:23;10.30;99.90
8914;DHT22;4492;48.736;9.092;2023-05-29T01:17:07;10.30;99.90
8914;DHT22;4492;48.736;9.092;2023-05-29T01:20:15;10.30;99.90
8914;DHT22;4492;48.736;9.092;2023-05-29T01:25:40;10.20;99.90
8914;DHT22;4492;48.736;9.092;2023-05-29T01:28:09;10.10;99.90
8914;DHT22;4492;48.736;9.092;2023-05-29T01:30:37;10.00;99.90
8914;DHT22;4492;48.736;9.092;2023-05-29T01:33:02;10.10;99.90
8914;DHT22;4492;48.736;9.092;2023-05-29T01:35:28;10.00;99.90
8914;DHT22;4492;48.736;9.092;2023-05-29T01:37:54;10.00;99.90
8914;DHT22;4492;48.736;9.092;2023-05-29T01:40:20;10.00;99.90
8914;DHT22;4492;48.736;9.092;2023-05-29T01:42:45;9.90;99.90
8914;DHT22;4492;48.736;9.092;2023-05-29T01:45:11;9.90;99.90
8914;DHT22;4492;48.736;9.092;2023-05-29T01:47:37;9.80;99.90
8914;DHT22;4492;48.736;9.092;2023-05-29T01:50:04;9.80;99.90
8914;DHT22;4492;48.736;9.092;2023-05-29T01:52:31;9.80;99.90
8914;DHT22;4492;48.736;9.092;2023-05-29T01:54:57;9.70;99.90
8914;DHT22;4492;48.736;9.092;2023-05-29T01:57:23;9.70;99.90
8914;DHT22;4492;48.736;9.092;2023-05-29T01:59:49;9.60;99.90
8914;DHT22;4492;48.736;9.092;2023-05-29T02:02:15;9.40;99.90
8914;DHT22;4492;48.736;9.092;2023-05-29T02:04:41;9.40;99.90
8914;DHT22;4492;48.736;9.092;2023-05-29T02:07:06;9.20;99.90
8914;DHT22;4492;48.736;9.092;2023-05-29T02:09:34;9.20;99.90
8914;DHT22;4492;48.736;9.092;2023-05-29T02:11:59;9.10;99.90
8914;DHT22;4492;48.736;9.092;2023-05-29T02:14:26;9.10;99.90
8914;DHT22;4492;48.736;9.092;2023-05-29T02:16:51;9.10;99.90
8914;DHT22;4492;48.736;9.092;2023-05-29T02:19:18;9.10;99.90
8914;DHT22;4492;48.736;9.092;2023-05-29T02:21:44;9.10;99.90
8914;DHT22;4492;48.736;9.092;2023-05-29T02:24:09;9.10;99.90
8914;DHT22;4492;48.736;9.092;2023-05-29T02:26:35;9.00;99.90
8914;DHT22;4492;48.736;9.092;2023-05-29T02:29:02;8.90;99.90
8914;DHT22;4492;48.736;9.092;2023-05-29T02:31:31;8.90;99.90
8914;DHT22;4492;48.736;9.092;2023-05-29T02:33:57;8.80;99.90
8914;DHT22;4492;48.736;9.092;2023-05-29T02:36:23;8.70;99.90
8914;DHT22;4492;48.736;9.092;2023-05-29T02:38:48;8.70;99.90
8914;DHT22;4492;48.736;9.092;2023-05-29T02:41:14;8.70;99.90
8914;DHT22;4492;48.736;9.092;2023-05-29T02:43:39;8.60;99.90
8914;DHT22;4492;48.736;9.092;2023-05-29T02:46:05;8.60;99.90
8914;DHT22;4492;48.736;9.092;2023-05-29T02:48:30;8.60;99.90
8914;DHT22;4492;48.736;9.092;2023-05-29T02:50:56;8.60;99.90
8914;DHT22;4492;48.736;9.092;2023-05-29T02:53:22;8.60;99.90
8914;DHT22;4492;48.736;9.092;2023-05-29T02:55:48;8.60;99.90
8914;DHT22;4492;48.736;9.092;2023-05-29T02:58:14;8.50;99.90
8914;DHT22;4492;48.736;9.092;2023-05-29T03:00:41;8.40;99.90
8914;DHT22;4492;48.736;9.092;2023-05-29T03:03:07;8.40;99.90
8914;DHT22;4492;48.736;9.092;2023-05-29T03:05:32;8.40;99.90
8914;DHT22;4492;48.736;9.092;2023-05-29T03:07:58;8.30;99.90
8914;DHT22;4492;48.736;9.092;2023-05-29T03:10:23;8.30;99.90
8914;DHT22;4492;48.736;9.092;2023-05-29T03:12:49;8.30;99.90
8914;DHT22;4492;48.736;9.092;2023-05-29T03:15:14;8.40;99.90
8914;DHT22;4492;48.736;9.092;2023-05-29T03:17:40;8.40;99.90
8914;DHT22;4492;48.736;9.092;2023-05-29T03:20:06;8.40;99.90
8914;DHT22;4492;48.736;9.092;2023-05-29T03:22:36;8.40;99.90
8914;DHT22;4492;48.736;9.092;2023-05-29T03:25:02;8.40;99.90
8914;DHT22;4492;48.736;9.092;2023-05-29T03:27:28;8.40;99.90
8914;DHT22;4492;48.736;9.092;2023-05-29T03:29:55;8.40;99.90
8914;DHT22;4492;48.736;9.092;2023-05-29T03:32:20;8.40;99.90
8914;DHT22;4492;48.736;9.092;2023-05-29T03:34:46;8.30;99.90
8914;DHT22;4492;48.736;9.092;2023-05-29T03:37:13;8.30;99.90
8914;DHT22;4492;48.736;9.092;2023-05-29T03:39:38;8.20;99.90
8914;DHT22;4492;48.736;9.092;2023-05-29T03:42:04;8.20;99.90
8914;DHT22;4492;48.736;9.092;2023-05-29T03:44:29;8.20;99.90
8914;DHT22;4492;48.736;9.092;2023-05-29T03:46:55;8.20;99.90
8914;DHT22;4492;48.736;9.092;2023-05-29T03:49:21;8.20;99.90
8914;DHT22;4492;48.736;9.092;2023-05-29T03:51:46;8.10;99.90
8914;DHT22;4492;48.736;9.092;2023-05-29T03:54:12;8.10;99.90
8914;DHT22;4492;48.736;9.092;2023-05-29T03:56:37;8.10;99.90
8914;DHT22;4492;48.736;9.092;2023-05-29T03:59:03;8.00;99.90
8914;DHT22;4492;48.736;9.092;2023-05-29T04:01:28;8.00;99.90
8914;DHT22;4492;48.736;9.092;2023-05-29T04:03:54;8.00;99.90
8914;DHT22;4492;48.736;9.092;2023-05-29T04:06:19;8.00;99.90
8914;DHT22;4492;48.736;9.092;2023-05-29T04:08:45;8.00;99.90
8914;DHT22;4492;48.736;9.092;2023-05-29T04:11:11;8.10;99.90
8914;DHT22;4492;48.736;9.092;2023-05-29T04:13:37;8.10;99.90
8914;DHT22;4492;48.736;9.092;2023-05-29T04:16:03;8.20;99.90
8914;DHT22;4492;48.736;9.092;2023-05-29T04:18:28;8.30;99.90
8914;DHT22;4492;48.736;9.092;2023-05-29T04:20:54;8.40;99.90
8914;DHT22;4492;48.736;9.092;2023-05-29T04:23:20;8.50;99.90
8914;DHT22;4492;48.736;9.092;2023-05-29T04:25:46;8.50;99.90
8914;DHT22;4492;48.736;9.092;2023-05-29T04:28:11;8.50;99.90
8914;DHT22;4492;48.736;9.092;2023-05-29T04:30:37;8.60;99.90
8914;DHT22;4492;48.736;9.092;2023-05-29T04:33:04;8.70;99.90
8914;DHT22;4492;48.736;9.092;2023-05-29T04:35:30;8.70;99.90
8914;DHT22;4492;48.736;9.092;2023-05-29T04:37:55;8.70;99.90
8914;DHT22;4492;48.736;9.092;2023-05-29T04:40:22;8.80;99.90
8914;DHT22;4492;48.736;9.092;2023-05-29T04:42:47;8.90;99.90
8914;DHT22;4492;48.736;9.092;2023-05-29T04:45:13;9.00;99.90
8914;DHT22;4492;48.736;9.092;2023-05-29T04:47:39;9.10;99.90
8914;DHT22;4492;48.736;9.092;2023-05-29T04:50:14;9.20;99.90
8914;DHT22;4492;48.736;9.092;2023-05-29T04:52:40;9.40;99.90
8914;DHT22;4492;48.736;9.092;2023-05-29T04:55:06;9.50;99.90
8914;DHT22;4492;48.736;9.092;2023-05-29T04:57:31;9.60;99.90
8914;DHT22;4492;48.736;9.092;2023-05-29T04:59:57;9.70;99.90
8914;DHT22;4492;48.736;9.092;2023-05-29T05:02:22;9.80;99.90
8914;DHT22;4492;48.736;9.092;2023-05-29T05:04:48;10.00;99.90
8914;DHT22;4492;48.736;9.092;2023-05-29T05:07:13;10.10;99.90
8914;DHT22;4492;48.736;9.092;2023-05-29T05:09:41;10.20;99.90
8914;DHT22;4492;48.736;9.092;2023-05-29T05:12:07;10.30;99.90
8914;DHT22;4492;48.736;9.092;2023-05-29T05:14:32;10.50;99.90
8914;DHT22;4492;48.736;9.092;2023-05-29T05:16:58;10.70;99.90
8914;DHT22;4492;48.736;9.092;2023-05-29T05:19:23;10.90;99.90
8914;DHT22;4492;48.736;9.092;2023-05-29T05:21:49;11.10;99.90
8914;DHT22;4492;48.736;9.092;2023-05-29T05:24:15;11.30;99.90
8914;DHT22;4492;48.736;9.092;2023-05-29T05:26:40;11.60;99.90
8914;DHT22;4492;48.736;9.092;2023-05-29T05:29:06;11.70;99.90
8914;DHT22;4492;48.736;9.092;2023-05-29T05:31:31;11.90;99.90
8914;DHT22;4492;48.736;9.092;2023-05-29T05:33:57;12.00;99.90
8914;DHT22;4492;48.736;9.092;2023-05-29T05:36:22;12.20;99.90
8914;DHT22;4492;48.736;9.092;2023-05-29T05:38:48;12.40;99.90
8914;DHT22;4492;48.736;9.092;2023-05-29T05:41:14;12.50;99.90
8914;DHT22;4492;48.736;9.092;2023-05-29T05:43:39;12.70;99.90
8914;DHT22;4492;48.736;9.092;2023-05-29T05:46:05;12.90;99.90
8914;DHT22;4492;48.736;9.092;2023-05-29T05:48:30;13.10;99.90
8914;DHT22;4492;48.736;9.092;2023-05-29T05:50:56;13.30;99.90
8914;DHT22;4492;48.736;9.092;2023-05-29T05:53:21;13.40;99.90
8914;DHT22;4492;48.736;9.092;2023-05-29T05:55:47;13.60;99.90
8914;DHT22;4492;48.736;9.092;2023-05-29T05:58:13;13.80;99.90
8914;DHT22;4492;48.736;9.092;2023-05-29T06:00:39;13.90;99.90
8914;DHT22;4492;48.736;9.092;2023-05-29T06:03:05;14.10;99.90
8914;DHT22;4492;48.736;9.092;2023-05-29T06:05:31;14.20;99.90
8914;DHT22;4492;48.736;9.092;2023-05-29T06:07:56;14.40;99.90
8914;DHT22;4492;48.736;9.092;2023-05-29T06:10:22;14.60;99.90
8914;DHT22;4492;48.736;9.092;2023-05-29T06:12:48;14.70;99.90
8914;DHT22;4492;48.736;9.092;2023-05-29T06:15:14;14.90;99.90
8914;DHT22;4492;48.736;9.092;2023-05-29T06:17:39;15.00;99.90
8914;DHT22;4492;48.736;9.092;2023-05-29T06:20:05;15.20;99.90
8914;DHT22;4492;48.736;9.092;2023-05-29T06:22:38;15.40;99.90
8914;DHT22;4492;48.736;9.092;2023-05-29T06:25:04;15.40;99.90
8914;DHT22;4492;48.736;9.092;2023-05-29T06:27:30;15.50;99.90
8914;DHT22;4492;48.736;9.092;2023-05-29T06:29:56;15.60;99.90
8914;DHT22;4492;48.736;9.092;2023-05-29T06:32:21;15.80;99.90
8914;DHT22;4492;48.736;9.092;2023-05-29T06:34:47;15.90;99.90
8914;DHT22;4492;48.736;9.092;2023-05-29T06:37:13;16.10;98.90
8914;DHT22;4492;48.736;9.092;2023-05-29T06:39:38;16.30;98.40
8914;DHT22;4492;48.736;9.092;2023-05-29T06:42:07;16.50;98.10
8914;DHT22;4492;48.736;9.092;2023-05-29T06:44:33;16.70;98.20
8914;DHT22;4492;48.736;9.092;2023-05-29T06:46:58;16.90;96.80
8914;DHT22;4492;48.736;9.092;2023-05-29T06:49:24;17.00;96.30
8914;DHT22;4492;48.736;9.092;2023-05-29T06:51:49;17.10;95.90
8914;DHT22;4492;48.736;9.092;2023-05-29T06:54:15;17.20;95.60
8914;DHT22;4492;48.736;9.092;2023-05-29T06:56:40;17.30;96.30
8914;DHT22;4492;48.736;9.092;2023-05-29T06:59:06;17.30;95.80
8914;DHT22;4492;48.736;9.092;2023-05-29T07:01:32;17.50;94.70
8914;DHT22;4492;48.736;9.092;2023-05-29T07:03:57;17.60;94.10
8914;DHT22;4492;48.736;9.092;2023-05-29T07:06:23;17.70;94.00
8914;DHT22;4492;48.736;9.092;2023-05-29T07:08:48;17.80;93.80
8914;DHT22;4492;48.736;9.092;2023-05-29T07:11:14;17.80;93.00
8914;DHT22;4492;48.736;9.092;2023-05-29T07:13:39;17.90;93.20
8914;DHT22;4492;48.736;9.092;2023-05-29T07:16:05;17.80;94.20
8914;DHT22;4492;48.736;9.092;2023-05-29T07:18:31;17.80;93.60
8914;DHT22;4492;48.736;9.092;2023-05-29T07:20:57;17.80;93.00
8914;DHT22;4492;48.736;9.092;2023-05-29T07:23:23;17.80;93.20
8914;DHT22;4492;48.736;9.092;2023-05-29T07:25:49;17.80;92.90
8914;DHT22;4492;48.736;9.092;2023-05-29T07:28:14;18.00;93.90
8914;DHT22;4492;48.736;9.092;2023-05-29T07:30:41;18.10;93.80
8914;DHT22;4492;48.736;9.092;2023-05-29T07:33:06;18.30;93.00
8914;DHT22;4492;48.736;9.092;2023-05-29T07:35:32;18.30;92.30
8914;DHT22;4492;48.736;9.092;2023-05-29T07:37:59;18.30;92.60
8914;DHT22;4492;48.736;9.092;2023-05-29T07:40:25;18.30;92.10
8914;DHT22;4492;48.736;9.092;2023-05-29T07:42:50;18.40;92.30
8914;DHT22;4492;48.736;9.092;2023-05-29T07:45:16;18.60;91.90
8914;DHT22;4492;48.736;9.092;2023-05-29T07:47:41;18.80;92.70
8914;DHT22;4492;48.736;9.092;2023-05-29T07:50:08;18.90;91.90
8914;DHT22;4492;48.736;9.092;2023-05-29T07:52:34;18.90;91.10
8914;DHT22;4492;48.736;9.092;2023-05-29T07:55:00;18.90;90.70
8914;DHT22;4492;48.736;9.092;2023-05-29T07:57:27;19.10;90.60
8914;DHT22;4492;48.736;9.092;2023-05-29T07:59:53;19.10;91.00
8914;DHT22;4492;48.736;9.092;2023-05-29T08:02:19;19.10;91.20
8914;DHT22;4492;48.736;9.092;2023-05-29T08:04:45;19.10;91.30
8914;DHT22;4492;48.736;9.092;2023-05-29T08:07:10;19.10;90.50
8914;DHT22;4492;48.736;9.092;2023-05-29T08:09:36;19.10;90.90
8914;DHT22;4492;48.736;9.092;2023-05-29T08:12:02;19.20;90.60
8914;DHT22;4492;48.736;9.092;2023-05-29T08:14:27;19.30;91.10
8914;DHT22;4492;48.736;9.092;2023-05-29T08:16:54;19.40;90.30
8914;DHT22;4492;48.736;9.092;2023-05-29T08:19:19;19.60;90.50
8914;DHT22;4492;48.736;9.092;2023-05-29T08:21:45;19.70;90.70
8914;DHT22;4492;48.736;9.092;2023-05-29T08:24:11;19.80;90.00
8914;DHT22;4492;48.736;9.092;2023-05-29T08:26:36;19.80;89.00
8914;DHT22;4492;48.736;9.092;2023-05-29T08:29:02;19.70;90.30
8914;DHT22;4492;48.736;9.092;2023-05-29T08:31:29;19.80;90.60
8914;DHT22;4492;48.736;9.092;2023-05-29T08:33:54;19.90;89.80
8914;DHT22;4492;48.736;9.092;2023-05-29T08:36:20;19.90;89.80
8914;DHT22;4492;48.736;9.092;2023-05-29T08:38:49;19.90;90.10
8914;DHT22;4492;48.736;9.092;2023-05-29T08:42:06;19.90;88.20
8914;DHT22;4492;48.736;9.092;2023-05-29T08:44:08;20.00;87.90
8914;DHT22;4492;48.736;9.092;2023-05-29T08:46:38;20.10;86.90
8914;DHT22;4492;48.736;9.092;2023-05-29T08:49:06;20.20;88.60
8914;DHT22;4492;48.736;9.092;2023-05-29T08:51:37;20.40;85.30
8914;DHT22;4492;48.736;9.092;2023-05-29T08:54:08;20.40;84.90
8914;DHT22;4492;48.736;9.092;2023-05-29T08:56:34;20.50;84.40
8914;DHT22;4492;48.736;9.092;2023-05-29T08:59:01;20.50;85.50
8914;DHT22;4492;48.736;9.092;2023-05-29T09:01:28;20.60;84.60
8914;DHT22;4492;48.736;9.092;2023-05-29T09:03:56;20.70;83.60
8914;DHT22;4492;48.736;9.092;2023-05-29T09:06:22;20.70;84.70
8914;DHT22;4492;48.736;9.092;2023-05-29T09:08:48;20.70;83.20
8914;DHT22;4492;48.736;9.092;2023-05-29T09:11:14;20.80;83.80
8914;DHT22;4492;48.736;9.092;2023-05-29T09:13:39;20.80;83.90
8914;DHT22;4492;48.736;9.092;2023-05-29T09:16:06;20.80;83.90
8914;DHT22;4492;48.736;9.092;2023-05-29T09:18:32;20.80;84.40
8914;DHT22;4492;48.736;9.092;2023-05-29T09:20:58;21.00;83.30
8914;DHT22;4492;48.736;9.092;2023-05-29T09:23:26;21.10;84.40
8914;DHT22;4492;48.736;9.092;2023-05-29T09:25:53;21.20;82.00
8914;DHT22;4492;48.736;9.092;2023-05-29T09:28:20;21.30;82.30
8914;DHT22;4492;48.736;9.092;2023-05-29T09:30:47;21.40;82.00
8914;DHT22;4492;48.736;9.092;2023-05-29T09:33:14;21.50;82.10
8914;DHT22;4492;48.736;9.092;2023-05-29T09:35:44;21.50;81.40
8914;DHT22;4492;48.736;9.092;2023-05-29T09:38:15;21.50;80.10
8914;DHT22;4492;48.736;9.092;2023-05-29T09:40:41;21.50;81.60
8914;DHT22;4492;48.736;9.092;2023-05-29T09:43:12;21.70;82.70
8914;DHT22;4492;48.736;9.092;2023-05-29T09:45:40;21.70;79.50
8914;DHT22;4492;48.736;9.092;2023-05-29T09:48:12;21.60;80.00
8914;DHT22;4492;48.736;9.092;2023-05-29T09:50:37;21.70;78.00
8914;DHT22;4492;48.736;9.092;2023-05-29T09:53:19;22.00;77.00
8914;DHT22;4492;48.736;9.092;2023-05-29T09:55:48;22.10;77.90
8914;DHT22;4492;48.736;9.092;2023-05-29T09:58:15;22.00;78.20
8914;DHT22;4492;48.736;9.092;2023-05-29T10:00:42;22.10;78.70
8914;DHT22;4492;48.736;9.092;2023-05-29T10:03:09;22.20;77.70
8914;DHT22;4492;48.736;9.092;2023-05-29T10:05:34;22.30;80.20
8914;DHT22;4492;48.736;9.092;2023-05-29T10:08:02;22.50;78.70
8914;DHT22;4492;48.736;9.092;2023-05-29T10:10:29;22.60;80.10
8914;DHT22;4492;48.736;9.092;2023-05-29T10:12:55;22.70;78.90
8914;DHT22;4492;48.736;9.092;2023-05-29T10:15:23;22.50;77.70
8914;DHT22;4492;48.736;9.092;2023-05-29T10:18:00;22.40;78.60
8914;DHT22;4492;48.736;9.092;2023-05-29T10:20:28;22.30;77.40
8914;DHT22;4492;48.736;9.092;2023-05-29T10:22:56;22.20;77.60
8914;DHT22;4492;48.736;9.092;2023-05-29T10:25:22;22.30;79.50
8914;DHT22;4492;48.736;9.092;2023-05-29T10:27:49;22.50;79.60
8914;DHT22;4492;48.736;9.092;2023-05-29T10:30:36;22.80;78.60
8914;DHT22;4492;48.736;9.092;2023-05-29T10:36:02;22.80;75.60
8914;DHT22;4492;48.736;9.092;2023-05-29T10:38:29;22.90;77.40
8914;DHT22;4492;48.736;9.092;2023-05-29T10:40:55;23.10;78.20
8914;DHT22;4492;48.736;9.092;2023-05-29T10:43:32;23.30;73.30
8914;DHT22;4492;48.736;9.092;2023-05-29T10:45:58;23.30;73.60
8914;DHT22;4492;48.736;9.092;2023-05-29T10:50:55;23.50;72.30
8914;DHT22;4492;48.736;9.092;2023-05-29T10:53:31;23.40;71.30
8914;DHT22;4492;48.736;9.092;2023-05-29T10:55:59;23.40;69.90
8914;DHT22;4492;48.736;9.092;2023-05-29T10:58:26;23.50;68.00
8914;DHT22;4492;48.736;9.092;2023-05-29T11:00:54;23.30;67.90
8914;DHT22;4492;48.736;9.092;2023-05-29T11:03:29;23.30;67.80
8914;DHT22;4492;48.736;9.092;2023-05-29T11:06:02;23.20;68.60
8914;DHT22;4492;48.736;9.092;2023-05-29T11:08:46;23.30;68.10
8914;DHT22;4492;48.736;9.092;2023-05-29T11:11:13;23.30;69.50
8914;DHT22;4492;48.736;9.092;2023-05-29T11:13:39;23.40;68.40
8914;DHT22;4492;48.736;9.092;2023-05-29T11:18:51;23.60;65.20
8914;DHT22;4492;48.736;9.092;2023-05-29T11:24:28;23.40;66.00
8914;DHT22;4492;48.736;9.092;2023-05-29T11:26:56;23.60;64.40
8914;DHT22;4492;48.736;9.092;2023-05-29T11:29:28;23.50;63.60
8914;DHT22;4492;48.736;9.092;2023-05-29T11:32:05;23.60;65.30
8914;DHT22;4492;48.736;9.092;2023-05-29T11:34:32;23.60;64.40
8914;DHT22;4492;48.736;9.092;2023-05-29T11:37:01;23.70;64.60
8914;DHT22;4492;48.736;9.092;2023-05-29T11:39:28;23.70;62.80
8914;DHT22;4492;48.736;9.092;2023-05-29T11:41:55;23.80;64.40
8914;DHT22;4492;48.736;9.092;2023-05-29T11:44:23;23.90;64.70
8914;DHT22;4492;48.736;9.092;2023-05-29T11:47:02;24.10;61.90
8914;DHT22;4492;48.736;9.092;2023-05-29T11:49:29;23.90;63.70
8914;DHT22;4492;48.736;9.092;2023-05-29T11:52:05;23.70;63.10
8914;DHT22;4492;48.736;9.092;2023-05-29T11:54:33;23.70;63.00
8914;DHT22;4492;48.736;9.092;2023-05-29T11:56:58;23.70;62.20
8914;DHT22;4492;48.736;9.092;2023-05-29T11:59:28;23.70;61.90
8914;DHT22;4492;48.736;9.092;2023-05-29T12:01:54;23.90;59.70
8914;DHT22;4492;48.736;9.092;2023-05-29T12:04:20;24.00;59.00
8914;DHT22;4492;48.736;9.092;2023-05-29T12:06:45;24.00;60.70
8914;DHT22;4492;48.736;9.092;2023-05-29T12:09:26;24.00;57.90
8914;DHT22;4492;48.736;9.092;2023-05-29T12:11:52;23.90;59.10
8914;DHT22;4492;48.736;9.092;2023-05-29T12:14:17;24.00;57.70
8914;DHT22;4492;48.736;9.092;2023-05-29T12:16:43;24.00;60.30
8914;DHT22;4492;48.736;9.092;2023-05-29T12:19:08;23.80;57.20
8914;DHT22;4492;48.736;9.092;2023-05-29T12:21:34;23.80;56.90
8914;DHT22;4492;48.736;9.092;2023-05-29T12:24:00;24.00;58.00
8914;DHT22;4492;48.736;9.092;2023-05-29T12:26:26;24.10;56.40
8914;DHT22;4492;48.736;9.092;2023-05-29T12:28:52;24.20;55.90
8914;DHT22;4492;48.736;9.092;2023-05-29T12:31:30;24.20;55.90
8914;DHT22;4492;48.736;9.092;2023-05-29T12:34:10;24.50;55.40
8914;DHT22;4492;48.736;9.092;2023-05-29T12:36:40;24.50;53.90
8914;DHT22;4492;48.736;9.092;2023-05-29T12:39:07;24.30;54.00
8914;DHT22;4492;48.736;9.092;2023-05-29T12:41:36;24.30;55.50
8914;DHT22;4492;48.736;9.092;2023-05-29T12:44:03;24.40;56.10
8914;DHT22;4492;48.736;9.092;2023-05-29T12:46:38;24.40;54.30
8914;DHT22;4492;48.736;9.092;2023-05-29T12:49:15;24.50;55.40
8914;DHT22;4492;48.736;9.092;2023-05-29T12:51:42;24.40;54.40
8914;DHT22;4492;48.736;9.092;2023-05-29T12:54:10;24.40;53.20
8914;DHT22;4492;48.736;9.092;2023-05-29T12:56:35;24.50;53.90
8914;DHT22;4492;48.736;9.092;2023-05-29T12:59:01;24.50;53.40
8914;DHT22;4492;48.736;9.092;2023-05-29T13:01:26;24.60;53.00
8914;DHT22;4492;48.736;9.092;2023-05-29T13:03:52;24.50;53.00
8914;DHT22;4492;48.736;9.092;2023-05-29T13:06:18;24.60;52.10
8914;DHT22;4492;48.736;9.092;2023-05-29T13:08:43;24.70;50.70
8914;DHT22;4492;48.736;9.092;2023-05-29T13:11:09;24.60;52.10
8914;DHT22;4492;48.736;9.092;2023-05-29T13:13:34;24.70;51.80
8914;DHT22;4492;48.736;9.092;2023-05-29T13:16:00;24.70;52.10
8914;DHT22;4492;48.736;9.092;2023-05-29T13:18:26;24.60;52.20
8914;DHT22;4492;48.736;9.092;2023-05-29T13:20:51;24.70;51.70
8914;DHT22;4492;48.736;9.092;2023-05-29T13:23:17;24.80;49.60
8914;DHT22;4492;48.736;9.092;2023-05-29T13:25:42;24.90;49.20
8914;DHT22;4492;48.736;9.092;2023-05-29T13:28:08;25.00;49.40
8914;DHT22;4492;48.736;9.092;2023-05-29T13:30:33;25.00;49.40
8914;DHT22;4492;48.736;9.092;2023-05-29T13:32:59;25.10;48.80
8914;DHT22;4492;48.736;9.092;2023-05-29T13:35:25;25.10;49.20
8914;DHT22;4492;48.736;9.092;2023-05-29T13:37:50;25.20;47.70
8914;DHT22;4492;48.736;9.092;2023-05-29T13:40:16;25.10;47.20
8914;DHT22;4492;48.736;9.092;2023-05-29T13:42:41;25.00;48.10
8914;DHT22;4492;48.736;9.092;2023-05-29T13:45:08;24.90;49.50
8914;DHT22;4492;48.736;9.092;2023-05-29T13:47:34;25.10;48.80
8914;DHT22;4492;48.736;9.092;2023-05-29T13:50:00;25.10;47.40
8914;DHT22;4492;48.736;9.092;2023-05-29T13:52:26;25.10;46.80
8914;DHT22;4492;48.736;9.092;2023-05-29T13:54:52;25.10;48.30
8914;DHT22;4492;48.736;9.092;2023-05-29T13:57:18;25.00;47.40
8914;DHT22;4492;48.736;9.092;2023-05-29T13:59:43;25.00;47.50
8914;DHT22;4492;48.736;9.092;2023-05-29T14:02:09;25.20;47.20
8914;DHT22;4492;48.736;9.092;2023-05-29T14:04:34;25.20;47.50
8914;DHT22;4492;48.736;9.092;2023-05-29T14:07:00;25.20;47.10
8914;DHT22;4492;48.736;9.092;2023-05-29T14:09:26;25.40;46.90
8914;DHT22;4492;48.736;9.092;2023-05-29T14:11:59;25.50;46.90
8914;DHT22;4492;48.736;9.092;2023-05-29T14:14:26;25.70;47.40
8914;DHT22;4492;48.736;9.092;2023-05-29T14:16:52;25.80;45.50
8914;DHT22;4492;48.736;9.092;2023-05-29T14:19:21;25.70;46.10
8914;DHT22;4492;48.736;9.092;2023-05-29T14:21:47;25.70;47.20
8914;DHT22;4492;48.736;9.092;2023-05-29T14:24:13;25.80;47.70
8914;DHT22;4492;48.736;9.092;2023-05-29T14:26:41;25.80;46.10
8914;DHT22;4492;48.736;9.092;2023-05-29T14:29:08;25.80;46.40
8914;DHT22;4492;48.736;9.092;2023-05-29T14:31:33;25.90;46.10
8914;DHT22;4492;48.736;9.092;2023-05-29T14:33:59;26.00;46.60
8914;DHT22;4492;48.736;9.092;2023-05-29T14:36:24;26.00;45.90
8914;DHT22;4492;48.736;9.092;2023-05-29T14:38:50;26.20;45.50
8914;DHT22;4492;48.736;9.092;2023-05-29T14:41:15;26.10;45.50
8914;DHT22;4492;48.736;9.092;2023-05-29T14:43:44;26.10;45.50
8914;DHT22;4492;48.736;9.092;2023-05-29T14:46:09;26.10;45.90
8914;DHT22;4492;48.736;9.092;2023-05-29T14:48:35;26.00;46.70
8914;DHT22;4492;48.736;9.092;2023-05-29T14:51:01;26.00;47.40
8914;DHT22;4492;48.736;9.092;2023-05-29T14:53:27;26.10;46.10
8914;DHT22;4492;48.736;9.092;2023-05-29T14:55:53;26.10;46.40
8914;DHT22;4492;48.736;9.092;2023-05-29T14:58:18;26.10;46.20
8914;DHT22;4492;48.736;9.092;2023-05-29T15:00:44;26.30;46.80
8914;DHT22;4492;48.736;9.092;2023-05-29T15:03:10;26.70;46.00
8914;DHT22;4492;48.736;9.092;2023-05-29T15:05:35;26.80;46.20
8914;DHT22;4492;48.736;9.092;2023-05-29T15:08:01;26.80;45.30
8914;DHT22;4492;48.736;9.092;2023-05-29T15:10:26;26.60;45.20
8914;DHT22;4492;48.736;9.092;2023-05-29T15:12:53;26.70;44.90
8914;DHT22;4492;48.736;9.092;2023-05-29T15:15:25;26.90;44.90
8914;DHT22;4492;48.736;9.092;2023-05-29T15:17:52;27.40;45.20
8914;DHT22;4492;48.736;9.092;2023-05-29T15:20:21;27.70;44.30
8914;DHT22;4492;48.736;9.092;2023-05-29T15:22:47;27.80;43.10
8914;DHT22;4492;48.736;9.092;2023-05-29T15:25:14;28.00;42.90
8914;DHT22;4492;48.736;9.092;2023-05-29T15:27:39;28.50;43.10
8914;DHT22;4492;48.736;9.092;2023-05-29T15:30:23;28.70;43.00
8914;DHT22;4492;48.736;9.092;2023-05-29T15:32:48;28.70;42.40
8914;DHT22;4492;48.736;9.092;2023-05-29T15:35:15;28.60;42.20
8914;DHT22;4492;48.736;9.092;2023-05-29T15:37:44;28.30;42.10
8914;DHT22;4492;48.736;9.092;2023-05-29T15:40:10;28.10;43.40
8914;DHT22;4492;48.736;9.092;2023-05-29T15:42:36;28.10;43.50
8914;DHT22;4492;48.736;9.092;2023-05-29T15:45:05;28.10;43.70
8914;DHT22;4492;48.736;9.092;2023-05-29T15:47:30;28.10;43.50
8914;DHT22;4492;48.736;9.092;2023-05-29T15:49:57;28.10;44.10
8914;DHT22;4492;48.736;9.092;2023-05-29T15:52:23;28.20;43.90
8914;DHT22;4492;48.736;9.092;2023-05-29T15:54:49;28.40;43.90
8914;DHT22;4492;48.736;9.092;2023-05-29T15:57:15;28.60;43.80
8914;DHT22;4492;48.736;9.092;2023-05-29T15:59:40;28.70;43.10
8914;DHT22;4492;48.736;9.092;2023-05-29T16:02:06;28.80;42.90
8914;DHT22;4492;48.736;9.092;2023-05-29T16:04:31;28.90;42.20
8914;DHT22;4492;48.736;9.092;2023-05-29T16:06:57;29.00;42.40
8914;DHT22;4492;48.736;9.092;2023-05-29T16:09:23;29.10;42.90
8914;DHT22;4492;48.736;9.092;2023-05-29T16:11:49;29.30;42.40
8914;DHT22;4492;48.736;9.092;2023-05-29T16:14:14;29.30;42.00
8914;DHT22;4492;48.736;9.092;2023-05-29T16:16:40;29.10;42.30